Terminal Aerodrome Forecast
Issued by NWS Houston/Galveston, TX

Current Version | Previous Version | Text Only | Print | Product List | Glossary On
Versions: 1 2 3 4 5 6 7 8 9 10 11 12 13 14 15 16 17 18 19 20 21 22 23 24 25 26 27 28 29 30 31 32 33 34 35 36 37 38
000
FTUS44 KHGX 062334
TAFGLS
TAF
KGLS 062334Z 0700/0724 12015KT P6SM SCT010
     FM070600 14015KT P6SM BKN015
     FM071500 13014KT P6SM SCT015=

USA.gov is the U.S. government's official web portal to all federal, state and local government web resources and services.